LSZG METAR and TAF | Updated Today

LSZG METAR

Grenchen Airport

Observation time: 22 min. ago

LSZG 062050Z AUTO 07001KT 9999 NCD 11/11 Q1029

Need help? Read our tutorial on how to read METARs or read the parsed version below.

Grenchen Airport (LSZG) METAR

  • Weather conditions on Thu, 06 Oct 2022 20:50:00 +0000 (22 min. ago):
  • Present conditions: Dry
  • Clouds: Nil cloud detected
  • Visibility: Greater than 10 km
  • Wind: 70 degrees at 1 knots
  • Temperature: 11 celsius
  • Dew point: 11 celsius
  • Pressure: 1029 millibars
  • Remarks: None


Useful to know...

LSZG TAF

Grenchen Airport

TAF LSZG 061425Z 0615/0624 03005KT 9999 FEW033
Observation time: 6:47 hr. ago
Need help? Read our tutorial on how to read TAFs or read the parsed version below.

Parsed version of TAF for Grenchen Airport (LSZG)

  • From 06 October at 15:00 UTC, to day 06 of the month at 24:00 UTC
  • Clouds: A few at 1006 meters
  • Visibility: Greater than 10 km
  • Wind: 30 degrees at 5

Airports near LSZG

LFSB Weather
IATA: BSL
Region: Bâle/Mulhouse

EuroAirport Basel-Mulhouse-Freiburg Airport

Found in our database
LFSQ Weather
Region: Belfort

Fontaine Airport

Not found in our database
LSGN Weather
Region:

Neuchatel Airport

Not found in our database
LSME Weather
IATA: EML
Region:

Emmen Air Base

Found in our database
LSZB Weather
IATA: BRN
Region: Bern

Bern Belp Airport

Found in our database
LSZC Weather
Region: Buochs

Buochs Airport

Not found in our database